Time;durP1;ratioP1;P1;durP2;ratioP2;P2;SDS_P1;SDS_P2;PMS_P1;PMS_P2;Temp;Humidity;BMP_temperature;BMP_pressure;BME280_temperature;BME280_humidity;BME280_pressure;Samples;Min_cycle;Max_cycle;Signal;HPM_P1;HPM_P2
2022/10/22 00:02:09;;;;;;;22.38;10.57;;;;;;;;;;4920118;29;20114;-67
2022/10/22 00:04:36;;;;;;;21.10;10.88;;;;;;;;;;4920176;29;20561;-68
2022/10/22 00:07:04;;;;;;;21.45;10.73;;;;;;;;;;4920074;29;20119;-67
2022/10/22 00:09:31;;;;;;;25.08;11.95;;;;;;;;;;4919997;29;20494;-68
2022/10/22 00:11:59;;;;;;;23.45;11.68;;;;;;;;;;4920058;29;20044;-68
2022/10/22 00:14:26;;;;;;;20.58;12.32;;;;;;;;;;4920090;29;20040;-68
2022/10/22 00:16:55;;;;;;;19.75;11.70;;;;;;;;;;4920272;29;20111;-67
2022/10/22 00:19:22;;;;;;;26.55;12.40;;;;;;;;;;4919815;29;20055;-68
2022/10/22 00:21:50;;;;;;;21.35;12.05;;;;;;;;;;4920008;29;20502;-67
2022/10/22 00:24:17;;;;;;;19.83;11.77;;;;;;;;;;4919764;29;20096;-67
2022/10/22 00:26:45;;;;;;;18.98;11.02;;;;;;;;;;4934440;29;20032;-67
2022/10/22 00:29:12;;;;;;;18.73;11.38;;;;;;;;;;4919745;29;20047;-67
2022/10/22 00:31:40;;;;;;;21.95;11.85;;;;;;;;;;4919568;29;20557;-68
2022/10/22 00:34:07;;;;;;;22.38;12.18;;;;;;;;;;4919756;29;20044;-67
2022/10/22 00:36:34;;;;;;;24.38;12.93;;;;;;;;;;4919627;29;20099;-67
2022/10/22 00:39:02;;;;;;;23.33;12.77;;;;;;;;;;4919639;29;20082;-68
2022/10/22 00:41:29;;;;;;;22.30;12.98;;;;;;;;;;4919493;29;20514;-67
2022/10/22 00:44:02;;;;;;;21.05;12.38;;;;;;;;;;4919253;29;20055;-67
2022/10/22 00:46:30;;;;;;;26.27;14.23;;;;;;;;;;4919447;29;20044;-67
2022/10/22 00:49:00;;;;;;;23.60;12.82;;;;;;;;;;4919544;29;20186;-67
2022/10/22 00:51:33;;;;;;;22.92;12.50;;;;;;;;;;4919193;29;20063;-67
2022/10/22 00:54:06;;;;;;;24.38;12.50;;;;;;;;;;4919282;29;20056;-67
2022/10/22 00:56:33;;;;;;;24.60;12.95;;;;;;;;;;4919324;29;20040;-67
2022/10/22 00:59:01;;;;;;;22.85;12.82;;;;;;;;;;4919159;29;20048;-67
2022/10/22 01:01:30;;;;;;;24.23;13.82;;;;;;;;;;4919208;29;20542;-67
2022/10/22 01:03:58;;;;;;;22.10;13.20;;;;;;;;;;4919079;29;20076;-67
2022/10/22 01:06:25;;;;;;;27.10;13.68;;;;;;;;;;4918702;29;20487;-67
2022/10/22 01:08:55;;;;;;;25.10;12.82;;;;;;;;;;4919282;29;20415;-67
2022/10/22 01:11:32;;;;;;;18.95;12.15;;;;;;;;;;4919103;29;20400;-68
2022/10/22 01:13:59;;;;;;;25.80;13.05;;;;;;;;;;4919121;29;20458;-68
2022/10/22 01:16:36;;;;;;;22.40;12.98;;;;;;;;;;4919305;29;20428;-67
2022/10/22 01:19:22;;;;;;;28.10;14.80;;;;;;;;;;4918830;29;20072;-68
2022/10/22 01:21:49;;;;;;;;;;;;;;;;;;4917907;29;20418;-67
2022/10/22 01:24:19;;;;;;;25.50;13.85;;;;;;;;;;4918745;29;20337;-67
2022/10/22 01:26:53;;;;;;;27.83;13.10;;;;;;;;;;4918840;29;20047;-67
2022/10/22 01:29:42;;;;;;;29.00;14.30;;;;;;;;;;4918881;29;20048;-67
2022/10/22 01:32:12;;;;;;;22.17;13.55;;;;;;;;;;4918930;29;20100;-67
2022/10/22 01:34:41;;;;;;;23.30;13.93;;;;;;;;;;4918711;29;20055;-67
2022/10/22 01:37:10;;;;;;;27.17;13.77;;;;;;;;;;4918627;29;20047;-67
2022/10/22 01:39:38;;;;;;;23.15;13.45;;;;;;;;;;4918712;29;20040;-67
2022/10/22 01:42:06;;;;;;;27.30;13.75;;;;;;;;;;4918496;29;20048;-68
2022/10/22 01:44:34;;;;;;;25.73;13.77;;;;;;;;;;4918535;29;20103;-67
2022/10/22 01:47:25;;;;;;;25.83;13.32;;;;;;;;;;4918405;29;20046;-67
2022/10/22 01:50:11;;;;;;;24.58;13.02;;;;;;;;;;4918299;29;20045;-67
2022/10/22 01:52:42;;;;;;;23.77;14.23;;;;;;;;;;4918204;29;20081;-67
2022/10/22 01:55:12;;;;;;;29.95;14.65;;;;;;;;;;4918332;29;20052;-67
2022/10/22 01:57:46;;;;;;;21.60;13.10;;;;;;;;;;4918120;29;20048;-68
2022/10/22 02:00:14;;;;;;;23.92;13.43;;;;;;;;;;4918143;29;20044;-67
2022/10/22 02:02:54;;;;;;;26.27;13.90;;;;;;;;;;4917989;29;20044;-67
2022/10/22 02:05:24;;;;;;;21.88;13.15;;;;;;;;;;4918131;29;20435;-67
2022/10/22 02:07:53;;;;;;;25.08;14.23;;;;;;;;;;4918184;29;20075;-67
2022/10/22 02:10:22;;;;;;;25.80;13.27;;;;;;;;;;4917766;29;20059;-67
2022/10/22 02:12:51;;;;;;;22.70;12.95;;;;;;;;;;4917871;29;20533;-67
2022/10/22 02:15:20;;;;;;;24.70;13.45;;;;;;;;;;4917906;29;20479;-67
2022/10/22 02:17:48;;;;;;;27.70;14.30;;;;;;;;;;4918275;29;20100;-67
2022/10/22 02:20:18;;;;;;;26.33;13.35;;;;;;;;;;4917169;29;20123;-67
2022/10/22 02:22:46;;;;;;;24.85;13.88;;;;;;;;;;4917957;29;20086;-67
2022/10/22 02:25:14;;;;;;;26.60;14.70;;;;;;;;;;4917702;29;20430;-67
2022/10/22 02:27:41;;;;;;;22.40;12.95;;;;;;;;;;4917684;29;20120;-67
2022/10/22 02:30:14;;;;;;;22.98;13.25;;;;;;;;;;4917645;29;20509;-67
2022/10/22 02:32:55;;;;;;;25.73;13.70;;;;;;;;;;4917553;29;20036;-67
2022/10/22 02:35:24;;;;;;;27.40;13.82;;;;;;;;;;4917644;29;20048;-67
2022/10/22 02:37:52;;;;;;;26.13;12.95;;;;;;;;;;4917474;29;20044;-67
2022/10/22 02:40:20;;;;;;;29.20;13.55;;;;;;;;;;4917433;29;20044;-67
2022/10/22 02:42:49;;;;;;;25.92;13.40;;;;;;;;;;4917410;29;20099;-67
2022/10/22 02:45:18;;;;;;;25.45;13.73;;;;;;;;;;4917328;29;20075;-67
2022/10/22 02:47:46;;;;;;;41.60;22.10;;;;;;;;;;4917238;29;20044;-67
2022/10/22 02:50:14;;;;;;;46.95;23.85;;;;;;;;;;4915944;29;20459;-67
2022/10/22 02:52:41;;;;;;;69.57;33.60;;;;;;;;;;4917274;29;20040;-67
2022/10/22 02:55:09;;;;;;;97.28;46.40;;;;;;;;;;4917029;29;20036;-68
2022/10/22 02:57:36;;;;;;;40.20;24.15;;;;;;;;;;4917129;29;20079;-68
2022/10/22 03:00:06;;;;;;;35.35;16.48;;;;;;;;;;4916933;29;20080;-67
2022/10/22 03:02:33;;;;;;;44.38;20.65;;;;;;;;;;4917031;29;20126;-67
2022/10/22 03:05:00;;;;;;;79.85;40.50;;;;;;;;;;4916920;29;20045;-67
2022/10/22 03:07:28;;;;;;;70.13;37.00;;;;;;;;;;4917239;29;20039;-67
2022/10/22 03:09:55;;;;;;;48.17;25.38;;;;;;;;;;4916827;29;20064;-67
2022/10/22 03:12:23;;;;;;;28.48;14.07;;;;;;;;;;4916990;29;20083;-67
2022/10/22 03:14:50;;;;;;;23.58;14.63;;;;;;;;;;4916701;29;20051;-67
2022/10/22 03:17:18;;;;;;;29.33;13.90;;;;;;;;;;4916615;29;20048;-67
2022/10/22 03:19:45;;;;;;;31.60;14.23;;;;;;;;;;4915686;29;20044;-68
2022/10/22 03:22:15;;;;;;;27.30;13.80;;;;;;;;;;4916780;29;20503;-67
2022/10/22 03:24:44;;;;;;;27.30;13.82;;;;;;;;;;4931193;29;20127;-68
2022/10/22 03:27:12;;;;;;;28.63;14.50;;;;;;;;;;4916547;29;20158;-67
2022/10/22 03:29:41;;;;;;;27.27;14.18;;;;;;;;;;4916654;29;20046;-68
2022/10/22 03:32:08;;;;;;;26.25;14.23;;;;;;;;;;4916453;29;20080;-67
2022/10/22 03:34:35;;;;;;;24.42;14.82;;;;;;;;;;4916409;29;20040;-67
2022/10/22 03:37:03;;;;;;;26.48;14.32;;;;;;;;;;4916658;29;20079;-67
2022/10/22 03:39:32;;;;;;;27.67;14.35;;;;;;;;;;4920950;29;20046;-67
2022/10/22 03:42:00;;;;;;;30.98;14.10;;;;;;;;;;4921027;29;20055;-67
2022/10/22 03:44:28;;;;;;;26.48;14.40;;;;;;;;;;4916371;29;20399;-67
2022/10/22 03:46:55;;;;;;;26.70;14.50;;;;;;;;;;4916344;29;20044;-68
2022/10/22 03:49:28;;;;;;;33.05;15.45;;;;;;;;;;4916556;29;20048;-68
2022/10/22 03:51:56;;;;;;;28.73;14.57;;;;;;;;;;4916454;29;20555;-67
2022/10/22 03:54:23;;;;;;;24.80;14.77;;;;;;;;;;4916435;29;20132;-67
2022/10/22 03:56:51;;;;;;;27.00;14.43;;;;;;;;;;4916084;29;20068;-67
2022/10/22 03:59:18;;;;;;;27.83;14.10;;;;;;;;;;4915154;29;20048;-67
2022/10/22 04:01:46;;;;;;;28.45;15.52;;;;;;;;;;4916151;29;20095;-67
2022/10/22 04:04:13;;;;;;;26.27;14.15;;;;;;;;;;4916285;29;20136;-67
2022/10/22 04:06:41;;;;;;;28.40;14.45;;;;;;;;;;4916087;29;20048;-67
2022/10/22 04:09:08;;;;;;;30.27;14.20;;;;;;;;;;4916523;29;20473;-67
2022/10/22 04:11:36;;;;;;;26.73;14.23;;;;;;;;;;4916100;29;20051;-67
2022/10/22 04:14:03;;;;;;;27.27;13.43;;;;;;;;;;4915960;29;20690;-67
2022/10/22 04:16:31;;;;;;;24.70;14.40;;;;;;;;;;4916275;29;20044;-67
2022/10/22 04:18:59;;;;;;;24.42;14.55;;;;;;;;;;4916535;29;20159;-67
2022/10/22 04:21:26;;;;;;;23.90;13.88;;;;;;;;;;4916283;29;20048;-67
2022/10/22 04:23:54;;;;;;;25.83;14.73;;;;;;;;;;4915959;29;20052;-67
2022/10/22 04:26:21;;;;;;;25.83;14.95;;;;;;;;;;4916425;29;20048;-67
2022/10/22 04:28:50;;;;;;;28.77;15.20;;;;;;;;;;4916197;29;20075;-67
2022/10/22 04:31:18;;;;;;;30.98;15.77;;;;;;;;;;4915924;29;20052;-67
2022/10/22 04:33:46;;;;;;;27.23;15.85;;;;;;;;;;4930863;29;20439;-67
2022/10/22 04:36:15;;;;;;;25.17;15.07;;;;;;;;;;4916018;29;20055;-67
2022/10/22 04:38:44;;;;;;;38.70;17.25;;;;;;;;;;4915833;29;20044;-67
2022/10/22 04:41:13;;;;;;;28.80;16.05;;;;;;;;;;4915983;29;20048;-67
2022/10/22 04:43:41;;;;;;;26.77;15.38;;;;;;;;;;4934154;29;20055;-67
2022/10/22 04:46:09;;;;;;;27.05;15.57;;;;;;;;;;4919486;29;20051;-67
2022/10/22 04:48:38;;;;;;;30.48;16.42;;;;;;;;;;4933983;29;20048;-66
2022/10/22 04:51:06;;;;;;;28.42;16.30;;;;;;;;;;4919408;29;20044;-66
2022/10/22 04:53:34;;;;;;;27.45;15.63;;;;;;;;;;4919505;29;20123;-66
2022/10/22 04:56:21;;;;;;;30.67;16.15;;;;;;;;;;4919414;29;20040;-66
2022/10/22 04:58:49;;;;;;;30.08;17.10;;;;;;;;;;4919077;29;20076;-66
2022/10/22 05:01:17;;;;;;;32.22;17.35;;;;;;;;;;4919103;29;20082;-65
2022/10/22 05:03:45;;;;;;;30.00;16.23;;;;;;;;;;4918901;29;20041;-66
2022/10/22 05:06:13;;;;;;;31.90;17.73;;;;;;;;;;4926478;29;20447;-65
2022/10/22 05:08:42;;;;;;;34.53;17.13;;;;;;;;;;4918762;29;20071;-65
2022/10/22 05:11:20;;;;;;;31.88;17.48;;;;;;;;;;4919072;29;20517;-65
2022/10/22 05:13:47;;;;;;;32.17;17.67;;;;;;;;;;4918937;29;20487;-65
2022/10/22 05:16:15;;;;;;;32.33;17.30;;;;;;;;;;4918945;29;20119;-65
2022/10/22 05:18:43;;;;;;;36.08;16.45;;;;;;;;;;4949568;29;20139;-65
2022/10/22 05:21:12;;;;;;;26.23;15.35;;;;;;;;;;4918886;29;20502;-65
2022/10/22 05:23:40;;;;;;;28.95;15.30;;;;;;;;;;4918807;29;20116;-65
2022/10/22 05:26:09;;;;;;;36.75;16.00;;;;;;;;;;4918840;29;20088;-65
2022/10/22 05:28:37;;;;;;;31.13;17.42;;;;;;;;;;4918769;29;20869;-65
2022/10/22 05:31:04;;;;;;;28.90;15.43;;;;;;;;;;4917539;29;20099;-65
2022/10/22 05:33:32;;;;;;;32.92;15.93;;;;;;;;;;4918644;29;20072;-65
2022/10/22 05:36:00;;;;;;;30.38;15.75;;;;;;;;;;4918653;29;20071;-65
2022/10/22 05:38:28;;;;;;;27.80;15.25;;;;;;;;;;4918547;29;20059;-65
2022/10/22 05:41:03;;;;;;;27.20;16.42;;;;;;;;;;4918672;29;20119;-66
2022/10/22 05:43:31;;;;;;;;;;;;;;;;;;4918670;29;20044;-65
2022/10/22 05:46:06;;;;;;;31.50;16.90;;;;;;;;;;4918441;29;19927;-65
2022/10/22 05:48:33;;;;;;;;;;;;;;;;;;4918960;29;20515;-66
2022/10/22 05:51:04;;;;;;;30.75;16.58;;;;;;;;;;4918509;29;19978;-66
2022/10/22 05:53:32;;;;;;;27.67;15.30;;;;;;;;;;4917553;29;20103;-66
2022/10/22 05:56:03;;;;;;;27.75;16.13;;;;;;;;;;4918348;29;20048;-67
2022/10/22 05:58:31;;;;;;;29.58;15.68;;;;;;;;;;4918217;29;20460;-67
2022/10/22 06:01:03;;;;;;;29.00;16.02;;;;;;;;;;4916877;29;20491;-67
2022/10/22 06:03:31;;;;;;;31.30;16.23;;;;;;;;;;4917983;29;20082;-67
2022/10/22 06:06:03;;;;;;;28.80;16.40;;;;;;;;;;4917679;29;20443;-67
2022/10/22 06:08:31;;;;;;;29.50;16.25;;;;;;;;;;4916106;29;20067;-67
2022/10/22 06:11:00;;;;;;;30.67;15.68;;;;;;;;;;4916030;29;20450;-66
2022/10/22 06:13:27;;;;;;;27.42;15.48;;;;;;;;;;4916163;29;20051;-67
2022/10/22 06:15:55;;;;;;;34.03;16.48;;;;;;;;;;4916085;29;20494;-67
2022/10/22 06:18:22;;;;;;;38.85;18.17;;;;;;;;;;4916011;29;20447;-67
2022/10/22 06:20:50;;;;;;;35.88;18.55;;;;;;;;;;4916275;29;20064;-67
2022/10/22 06:23:17;;;;;;;41.88;21.38;;;;;;;;;;4917791;29;20103;-67
2022/10/22 06:25:44;;;;;;;80.18;31.10;;;;;;;;;;4918073;29;20067;-67
2022/10/22 06:28:12;;;;;;;62.45;27.92;;;;;;;;;;4917770;29;20070;-67
2022/10/22 06:30:39;;;;;;;49.80;25.20;;;;;;;;;;4917896;29;20056;-67
2022/10/22 06:33:12;;;;;;;50.70;24.90;;;;;;;;;;4915759;29;20547;-66
2022/10/22 06:35:39;;;;;;;53.15;25.00;;;;;;;;;;4917555;29;20074;-66
2022/10/22 06:38:07;;;;;;;63.53;29.52;;;;;;;;;;4917385;29;20548;-66
2022/10/22 06:40:34;;;;;;;47.45;26.50;;;;;;;;;;4917560;29;20048;-66
2022/10/22 06:43:01;;;;;;;61.10;28.88;;;;;;;;;;4917767;29;20436;-67
2022/10/22 06:45:29;;;;;;;62.35;29.45;;;;;;;;;;4917336;29;20119;-66
2022/10/22 06:47:56;;;;;;;75.30;34.78;;;;;;;;;;4917126;29;20067;-67
2022/10/22 06:50:24;;;;;;;60.17;29.40;;;;;;;;;;4917421;29;20123;-68
2022/10/22 06:52:51;;;;;;;42.70;22.48;;;;;;;;;;4917444;29;20040;-68
2022/10/22 06:55:19;;;;;;;44.03;20.95;;;;;;;;;;4916189;29;20055;-67
2022/10/22 06:57:46;;;;;;;38.88;19.92;;;;;;;;;;4917380;29;20044;-68
2022/10/22 07:00:14;;;;;;;36.92;19.48;;;;;;;;;;4917079;29;20048;-68
2022/10/22 07:02:41;;;;;;;39.47;21.33;;;;;;;;;;4917109;29;20503;-68
2022/10/22 07:05:09;;;;;;;33.53;19.27;;;;;;;;;;4916919;29;20473;-69
2022/10/22 07:07:37;;;;;;;28.02;15.70;;;;;;;;;;4916944;29;20044;-68
2022/10/22 07:10:04;;;;;;;24.38;16.20;;;;;;;;;;4916944;29;20099;-70
2022/10/22 07:12:33;;;;;;;32.08;20.05;;;;;;;;;;4916858;29;20048;-70
2022/10/22 07:15:01;;;;;;;43.42;20.88;;;;;;;;;;4917129;29;20086;-70
2022/10/22 07:17:28;;;;;;;31.10;19.90;;;;;;;;;;4915722;29;20040;-69
2022/10/22 07:19:56;;;;;;;25.60;16.55;;;;;;;;;;4916865;29;20116;-73
2022/10/22 07:22:23;;;;;;;29.40;17.02;;;;;;;;;;4916764;29;20048;-73
2022/10/22 07:24:50;;;;;;;21.58;13.98;;;;;;;;;;4915336;29;20402;-73
2022/10/22 07:27:18;;;;;;;22.88;14.65;;;;;;;;;;4909071;29;20032;-73
2022/10/22 07:29:45;;;;;;;25.85;14.60;;;;;;;;;;4908449;29;20112;-73
2022/10/22 07:32:13;;;;;;;22.13;13.45;;;;;;;;;;4914207;29;20438;-73
2022/10/22 07:34:40;;;;;;;25.63;13.43;;;;;;;;;;4914598;29;20048;-73
2022/10/22 07:37:10;;;;;;;31.38;18.48;;;;;;;;;;4913920;29;20036;-73
2022/10/22 07:39:37;;;;;;;20.20;14.65;;;;;;;;;;4915020;29;20040;-73
2022/10/22 07:42:05;;;;;;;24.83;13.73;;;;;;;;;;4915847;29;20095;-73
2022/10/22 07:44:32;;;;;;;20.73;13.82;;;;;;;;;;4916110;29;20094;-73
2022/10/22 07:47:00;;;;;;;27.33;16.88;;;;;;;;;;4916038;29;20127;-73
2022/10/22 07:49:27;;;;;;;21.98;14.35;;;;;;;;;;4915310;29;20037;-73
2022/10/22 07:51:55;;;;;;;25.00;13.48;;;;;;;;;;4916679;29;20135;-74
2022/10/22 07:54:23;;;;;;;24.10;13.18;;;;;;;;;;4916240;29;20044;-74
2022/10/22 07:56:51;;;;;;;19.67;11.68;;;;;;;;;;4916940;29;20380;-75
2022/10/22 07:59:18;;;;;;;19.58;11.25;;;;;;;;;;4918261;29;20044;-74
2022/10/22 08:01:46;;;;;;;23.58;11.27;;;;;;;;;;4916070;29;20040;-74
2022/10/22 08:04:13;;;;;;;18.73;11.90;;;;;;;;;;4914574;29;20048;-74
2022/10/22 08:06:41;;;;;;;22.63;12.60;;;;;;;;;;4916106;29;20052;-74
2022/10/22 08:09:13;;;;;;;19.88;11.35;;;;;;;;;;4915916;29;20043;-74
2022/10/22 08:11:41;;;;;;;23.23;13.23;;;;;;;;;;4915537;29;20064;-74
2022/10/22 08:14:08;;;;;;;21.70;12.55;;;;;;;;;;4915256;29;20120;-73
2022/10/22 08:16:36;;;;;;;25.13;13.07;;;;;;;;;;4916104;29;20044;-73
2022/10/22 08:19:03;;;;;;;22.88;13.82;;;;;;;;;;4918578;29;20507;-71
2022/10/22 08:21:30;;;;;;;23.98;13.45;;;;;;;;;;4919497;29;20044;-74
2022/10/22 08:23:58;;;;;;;19.92;11.73;;;;;;;;;;4919576;29;20047;-72
2022/10/22 08:26:25;;;;;;;25.98;12.18;;;;;;;;;;4919301;29;20040;-73
2022/10/22 08:28:53;;;;;;;17.95;12.88;;;;;;;;;;4918117;29;20055;-73
2022/10/22 08:31:20;;;;;;;25.30;13.80;;;;;;;;;;4919243;29;20052;-73
2022/10/22 08:33:48;;;;;;;20.15;13.50;;;;;;;;;;4919441;29;20048;-72
2022/10/22 08:36:15;;;;;;;27.15;13.90;;;;;;;;;;4919654;29;20111;-73
2022/10/22 08:38:43;;;;;;;23.10;13.95;;;;;;;;;;4919184;29;20055;-72
2022/10/22 08:41:10;;;;;;;23.50;13.38;;;;;;;;;;4919320;29;20044;-72
2022/10/22 08:43:38;;;;;;;20.63;13.70;;;;;;;;;;4919412;29;20578;-73
2022/10/22 08:46:05;;;;;;;19.60;13.32;;;;;;;;;;4919218;29;20482;-72
2022/10/22 08:48:45;;;;;;;20.73;13.43;;;;;;;;;;4914327;29;20048;-73
2022/10/22 08:51:15;;;;;;;25.25;13.10;;;;;;;;;;4919317;29;20044;-73
2022/10/22 08:54:02;;;;;;;20.25;12.23;;;;;;;;;;4914830;29;20044;-73
2022/10/22 08:56:30;;;;;;;20.98;13.32;;;;;;;;;;4919155;29;20391;-73
2022/10/22 08:59:24;;;;;;;22.20;13.07;;;;;;;;;;4919177;29;20040;-72
2022/10/22 09:01:53;;;;;;;18.80;12.90;;;;;;;;;;4904297;29;20056;-73
2022/10/22 09:04:26;;;;;;;20.75;12.93;;;;;;;;;;4918835;29;20044;-74
2022/10/22 09:06:55;;;;;;;18.58;11.63;;;;;;;;;;4916975;29;20512;-72
2022/10/22 09:09:26;;;;;;;19.67;12.65;;;;;;;;;;4918159;29;20100;-75
2022/10/22 09:11:56;;;;;;;18.95;12.13;;;;;;;;;;4917677;29;20052;-72
2022/10/22 09:14:24;;;;;;;22.23;12.73;;;;;;;;;;4915567;29;20036;-73
2022/10/22 09:16:51;;;;;;;21.45;13.32;;;;;;;;;;4917409;29;20040;-73
2022/10/22 09:19:28;;;;;;;19.08;12.27;;;;;;;;;;4917511;29;20036;-73
2022/10/22 09:22:28;;;;;;;27.98;12.38;;;;;;;;;;4917000;29;20062;-71
2022/10/22 09:24:59;;;;;;;21.30;11.25;;;;;;;;;;4885810;29;20059;-73
2022/10/22 09:27:28;;;;;;;18.92;12.18;;;;;;;;;;4917160;29;20040;-74
2022/10/22 09:29:55;;;;;;;21.25;12.05;;;;;;;;;;4918467;29;20503;-73
2022/10/22 09:32:23;;;;;;;21.38;12.05;;;;;;;;;;4918218;29;20068;-73
2022/10/22 09:34:55;;;;;;;19.10;12.30;;;;;;;;;;4918174;29;20071;-73
2022/10/22 09:37:25;;;;;;;20.50;11.68;;;;;;;;;;4918185;29;20052;-74
2022/10/22 09:39:53;;;;;;;15.38;10.77;;;;;;;;;;4918191;29;20495;-73
2022/10/22 09:42:21;;;;;;;17.23;11.02;;;;;;;;;;4905014;29;20040;-74
2022/10/22 09:44:57;;;;;;;21.33;11.48;;;;;;;;;;4918009;29;20495;-73
2022/10/22 09:47:33;;;;;;;19.58;11.60;;;;;;;;;;4917974;29;20096;-73
2022/10/22 09:50:19;;;;;;;44.55;13.32;;;;;;;;;;4916582;29;20044;-74
2022/10/22 09:52:58;;;;;;;36.92;12.45;;;;;;;;;;4916561;29;20048;-72
2022/10/22 09:55:26;;;;;;;85.70;17.13;;;;;;;;;;4917327;29;20123;-73
2022/10/22 09:57:59;;;;;;;91.25;17.23;;;;;;;;;;4917695;29;20074;-68
2022/10/22 10:00:27;;;;;;;138.65;19.15;;;;;;;;;;4917669;29;20052;-72
2022/10/22 10:02:58;;;;;;;30.88;11.70;;;;;;;;;;4906928;29;20068;-75
2022/10/22 10:05:28;;;;;;;65.65;14.57;;;;;;;;;;4916202;29;20095;-72
2022/10/22 10:07:57;;;;;;;114.38;15.57;;;;;;;;;;4917696;29;20052;-66
2022/10/22 10:10:32;;;;;;;22.38;9.32;;;;;;;;;;4917567;29;20040;-72
2022/10/22 10:13:03;;;;;;;17.98;9.35;;;;;;;;;;4916773;29;20047;-72
2022/10/22 10:15:36;;;;;;;16.13;9.73;;;;;;;;;;4915987;29;20475;-72
2022/10/22 10:18:16;;;;;;;14.13;10.00;;;;;;;;;;4916600;29;20036;-71
2022/10/22 10:20:50;;;;;;;16.15;11.13;;;;;;;;;;4917304;29;20071;-73
2022/10/22 10:23:20;;;;;;;17.38;8.85;;;;;;;;;;4917169;29;20115;-72
2022/10/22 10:25:57;;;;;;;28.67;9.98;;;;;;;;;;4916816;29;20044;-72
2022/10/22 10:28:34;;;;;;;13.30;9.43;;;;;;;;;;4916995;29;20050;-72
2022/10/22 10:31:02;;;;;;;71.93;22.77;;;;;;;;;;4917062;29;20139;-72
2022/10/22 10:33:37;;;;;;;10.90;8.70;;;;;;;;;;4916900;29;20032;-72
2022/10/22 10:36:24;;;;;;;13.57;8.63;;;;;;;;;;4917076;29;20048;-71
2022/10/22 10:38:55;;;;;;;12.05;8.00;;;;;;;;;;4916745;29;20111;-71
2022/10/22 10:41:30;;;;;;;267.23;22.45;;;;;;;;;;4916537;29;20426;-71
2022/10/22 10:44:16;;;;;;;20.92;8.30;;;;;;;;;;4917211;29;20107;-72
2022/10/22 10:46:53;;;;;;;12.07;8.38;;;;;;;;;;4916798;29;20052;-71
2022/10/22 10:49:29;;;;;;;238.70;23.33;;;;;;;;;;4916908;29;20115;-71
2022/10/22 10:52:06;;;;;;;42.53;10.63;;;;;;;;;;4917030;29;20051;-75
2022/10/22 10:54:43;;;;;;;12.35;8.77;;;;;;;;;;4916652;29;20040;-84
2022/10/22 10:57:10;;;;;;;19.48;10.32;;;;;;;;;;4916191;29;20495;-83
2022/10/22 11:00:00;;;;;;;50.92;14.15;;;;;;;;;;4916255;29;20044;-72
2022/10/22 11:02:37;;;;;;;19.10;10.18;;;;;;;;;;4917302;29;20055;-83
2022/10/22 11:05:07;;;;;;;17.42;8.50;;;;;;;;;;4916843;29;20048;-79
2022/10/22 11:07:38;;;;;;;15.07;7.63;;;;;;;;;;4910592;29;20491;-73
2022/10/22 11:10:11;;;;;;;23.10;7.90;;;;;;;;;;4916419;29;20044;-75
2022/10/22 11:12:41;;;;;;;10.85;6.80;;;;;;;;;;4916487;29;20092;-76
2022/10/22 11:15:31;;;;;;;11.88;7.72;;;;;;;;;;4917026;29;20452;-78
2022/10/22 11:18:04;;;;;;;9.90;8.02;;;;;;;;;;4916579;29;20054;-74
2022/10/22 11:20:40;;;;;;;12.18;7.40;;;;;;;;;;4913910;29;20040;-73
2022/10/22 11:23:31;;;;;;;11.32;7.00;;;;;;;;;;4903399;29;20495;-72
2022/10/22 11:25:59;;;;;;;9.20;6.68;;;;;;;;;;4911132;29;20407;-72
2022/10/22 11:28:29;;;;;;;11.73;7.25;;;;;;;;;;4916071;29;20040;-72
2022/10/22 11:30:59;;;;;;;10.10;7.30;;;;;;;;;;4915921;29;20082;-71
2022/10/22 11:33:33;;;;;;;10.95;6.75;;;;;;;;;;4916153;29;20036;-70
2022/10/22 11:36:02;;;;;;;10.48;7.07;;;;;;;;;;4916025;29;20048;-71
2022/10/22 11:38:30;;;;;;;13.38;7.15;;;;;;;;;;4916255;29;20044;-72
2022/10/22 11:41:02;;;;;;;14.73;7.25;;;;;;;;;;4916171;29;20123;-72
2022/10/22 11:43:35;;;;;;;12.30;8.30;;;;;;;;;;4914862;29;20555;-71
2022/10/22 11:46:08;;;;;;;12.38;7.03;;;;;;;;;;4916498;29;20431;-72
2022/10/22 11:48:37;;;;;;;10.35;6.70;;;;;;;;;;4915694;29;20554;-72
2022/10/22 11:51:24;;;;;;;10.75;7.05;;;;;;;;;;4915446;29;20048;-72
2022/10/22 11:53:55;;;;;;;10.23;6.32;;;;;;;;;;4915997;29;20055;-72
2022/10/22 11:56:27;;;;;;;16.80;9.02;;;;;;;;;;4915883;29;20083;-72
2022/10/22 11:58:54;;;;;;;12.25;7.07;;;;;;;;;;4915936;29;20040;-72
2022/10/22 12:01:26;;;;;;;14.93;6.90;;;;;;;;;;4915847;29;20507;-71
2022/10/22 12:03:57;;;;;;;9.43;6.95;;;;;;;;;;4915944;29;20143;-72
2022/10/22 12:06:25;;;;;;;11.20;7.60;;;;;;;;;;4914701;29;20414;-72
2022/10/22 12:08:53;;;;;;;10.93;6.72;;;;;;;;;;4915915;29;20443;-72
2022/10/22 12:11:48;;;;;;;12.98;6.90;;;;;;;;;;4915847;29;20455;-72
2022/10/22 12:14:26;;;;;;;12.55;8.40;;;;;;;;;;4916033;29;20047;-72
2022/10/22 12:16:58;;;;;;;13.18;8.45;;;;;;;;;;4917530;29;20244;-72
2022/10/22 12:19:27;;;;;;;9.13;6.30;;;;;;;;;;4916433;29;20461;-72
2022/10/22 12:22:16;;;;;;;11.15;6.28;;;;;;;;;;4915801;29;20044;-72
2022/10/22 12:24:45;;;;;;;9.18;6.53;;;;;;;;;;4916010;29;20472;-72
2022/10/22 12:27:26;;;;;;;12.15;6.72;;;;;;;;;;4915489;29;20126;-72
2022/10/22 12:29:55;;;;;;;10.40;6.70;;;;;;;;;;4915645;29;20472;-72
2022/10/22 12:32:23;;;;;;;13.60;7.15;;;;;;;;;;4915496;29;20451;-72
2022/10/22 12:34:51;;;;;;;8.73;7.10;;;;;;;;;;4915557;29;20044;-71
2022/10/22 12:37:19;;;;;;;12.85;6.63;;;;;;;;;;4915581;29;20166;-71
2022/10/22 12:39:47;;;;;;;14.07;7.07;;;;;;;;;;4915503;29;20071;-72
2022/10/22 12:42:15;;;;;;;19.63;7.35;;;;;;;;;;4914236;29;20040;-72
2022/10/22 12:44:44;;;;;;;66.47;43.85;;;;;;;;;;4915674;29;20131;-72
2022/10/22 12:47:18;;;;;;;10.55;6.85;;;;;;;;;;4915498;29;20048;-72
2022/10/22 12:49:46;;;;;;;9.95;6.95;;;;;;;;;;4915474;29;20051;-72
2022/10/22 12:52:22;;;;;;;7.70;6.38;;;;;;;;;;4915442;29;20075;-72
2022/10/22 12:54:51;;;;;;;10.73;7.35;;;;;;;;;;4915298;29;20115;-72
2022/10/22 12:57:19;;;;;;;11.55;8.85;;;;;;;;;;4915116;29;20044;-74
2022/10/22 12:59:48;;;;;;;14.73;7.53;;;;;;;;;;4914813;29;20933;-72
2022/10/22 13:02:23;;;;;;;8.77;6.15;;;;;;;;;;4914653;29;20048;-71
2022/10/22 13:05:13;;;;;;;11.80;6.63;;;;;;;;;;4917888;29;20040;-72
2022/10/22 13:07:41;;;;;;;11.50;5.90;;;;;;;;;;4917760;29;20529;-69
2022/10/22 13:10:19;;;;;;;11.52;6.15;;;;;;;;;;4919050;29;20040;-71
2022/10/22 13:12:49;;;;;;;10.80;6.03;;;;;;;;;;4918983;29;20048;-72
2022/10/22 13:15:32;;;;;;;17.27;6.22;;;;;;;;;;4918572;29;20490;-73
2022/10/22 13:18:06;;;;;;;11.63;6.75;;;;;;;;;;4919056;29;20088;-69
2022/10/22 13:20:36;;;;;;;10.32;6.88;;;;;;;;;;4918871;29;20044;-73
2022/10/22 13:23:05;;;;;;;14.35;9.18;;;;;;;;;;4918958;29;20123;-72
2022/10/22 13:25:34;;;;;;;11.13;7.57;;;;;;;;;;4918499;29;20570;-73
2022/10/22 13:28:10;;;;;;;14.60;7.68;;;;;;;;;;4918734;29;20052;-73
2022/10/22 13:30:38;;;;;;;13.15;7.95;;;;;;;;;;4918398;29;20044;-72
2022/10/22 13:33:27;;;;;;;14.20;7.93;;;;;;;;;;4918646;29;20052;-74
2022/10/22 13:35:56;;;;;;;13.20;8.45;;;;;;;;;;4918745;29;20048;-73
2022/10/22 13:38:24;;;;;;;14.10;7.80;;;;;;;;;;4918597;29;20040;-71
2022/10/22 13:40:51;;;;;;;11.18;7.32;;;;;;;;;;4917253;29;20052;-70
2022/10/22 13:43:19;;;;;;;21.40;8.63;;;;;;;;;;4918610;29;20487;-73
2022/10/22 13:45:48;;;;;;;12.95;8.65;;;;;;;;;;4918156;29;20048;-71
2022/10/22 13:48:18;;;;;;;12.98;7.53;;;;;;;;;;4918368;29;20072;-71
2022/10/22 13:50:45;;;;;;;12.30;7.32;;;;;;;;;;4917618;29;20048;-71
2022/10/22 13:53:23;;;;;;;10.02;6.50;;;;;;;;;;4915780;29;20319;-71
2022/10/22 13:55:51;;;;;;;11.65;6.47;;;;;;;;;;4917799;29;20521;-70
2022/10/22 13:58:26;;;;;;;12.05;6.88;;;;;;;;;;4918319;29;20040;-72
2022/10/22 14:00:54;;;;;;;;;;;;;;;;;;4918657;29;20040;-71
2022/10/22 14:03:24;;;;;;;11.77;6.68;;;;;;;;;;4918098;29;19923;-71
2022/10/22 14:05:52;;;;;;;11.93;7.25;;;;;;;;;;4917898;29;20055;-71
2022/10/22 14:08:20;;;;;;;11.13;6.80;;;;;;;;;;4916825;29;20044;-71
2022/10/22 14:10:47;;;;;;;14.38;7.38;;;;;;;;;;4917909;29;20055;-70
2022/10/22 14:13:16;;;;;;;15.82;9.13;;;;;;;;;;4918159;29;20499;-70
2022/10/22 14:15:45;;;;;;;12.48;7.50;;;;;;;;;;4917016;29;20067;-71
2022/10/22 14:18:15;;;;;;;13.30;7.35;;;;;;;;;;4917884;29;20052;-71
2022/10/22 14:20:42;;;;;;;14.00;7.95;;;;;;;;;;4917816;29;20048;-71
2022/10/22 14:23:15;;;;;;;12.10;8.23;;;;;;;;;;4917909;29;20068;-70
2022/10/22 14:25:43;;;;;;;13.90;10.00;;;;;;;;;;4917617;29;20063;-71
2022/10/22 14:28:11;;;;;;;20.52;10.63;;;;;;;;;;4917713;29;20499;-71
2022/10/22 14:30:39;;;;;;;14.00;9.05;;;;;;;;;;4917517;29;20510;-71
2022/10/22 14:33:12;;;;;;;13.25;10.05;;;;;;;;;;4917603;29;20107;-71
2022/10/22 14:35:40;;;;;;;21.60;11.13;;;;;;;;;;4917575;29;20411;-71
2022/10/22 14:38:07;;;;;;;17.65;12.35;;;;;;;;;;4917608;29;20052;-71
2022/10/22 14:40:37;;;;;;;19.17;13.43;;;;;;;;;;4917555;29;20044;-71